createdAt,value
2022-12-20T00:01:52.144Z,4.77
2022-12-20T00:04:19.003Z,3.93
2022-12-20T00:06:48.537Z,3.80
2022-12-20T00:09:15.401Z,5.87
2022-12-20T00:11:42.781Z,2.90
2022-12-20T00:14:10.637Z,6.53
2022-12-20T00:16:38.168Z,6.17
2022-12-20T00:19:06.901Z,4.20
2022-12-20T00:21:36.788Z,4.03
2022-12-20T00:24:05.208Z,6.57
2022-12-20T00:26:35.387Z,2.63
2022-12-20T00:29:06.370Z,7.00
2022-12-20T00:31:34.037Z,4.43
2022-12-20T00:34:01.434Z,2.90
2022-12-20T00:36:30.020Z,5.23
2022-12-20T00:38:58.066Z,4.87
2022-12-20T00:41:28.644Z,5.03
2022-12-20T00:43:56.154Z,3.10
2022-12-20T00:46:26.154Z,4.47
2022-12-20T00:48:54.572Z,7.13
2022-12-20T00:51:24.931Z,5.57
2022-12-20T00:53:51.731Z,3.80
2022-12-20T00:56:19.255Z,4.17
2022-12-20T00:58:46.724Z,5.10
2022-12-20T01:01:26.141Z,3.73
2022-12-20T01:03:53.440Z,4.83
2022-12-20T01:06:21.942Z,5.33
2022-12-20T01:08:48.933Z,5.47
2022-12-20T01:11:28.087Z,3.37
2022-12-20T01:13:57.602Z,4.70
2022-12-20T01:16:28.877Z,5.43
2022-12-20T01:18:56.155Z,3.67
2022-12-20T01:21:25.353Z,4.17
2022-12-20T01:23:52.715Z,4.63
2022-12-20T01:26:22.359Z,4.53
2022-12-20T01:28:52.019Z,5.50
2022-12-20T01:31:20.544Z,6.03
2022-12-20T01:33:48.564Z,6.53
2022-12-20T01:36:27.120Z,3.73
2022-12-20T01:39:02.066Z,3.90
2022-12-20T01:41:30.853Z,6.40
2022-12-20T01:44:03.423Z,7.13
2022-12-20T01:46:33.701Z,6.30
2022-12-20T01:49:05.838Z,8.30
2022-12-20T01:51:35.994Z,3.20
2022-12-20T01:54:11.464Z,5.03
2022-12-20T01:56:40.495Z,5.23
2022-12-20T01:59:12.921Z,6.07
2022-12-20T02:01:41.602Z,6.00
2022-12-20T02:04:08.764Z,3.40
2022-12-20T02:06:35.755Z,5.67
2022-12-20T02:09:08.531Z,5.73
2022-12-20T02:11:58.332Z,4.57
2022-12-20T02:14:55.409Z,5.50
2022-12-20T02:17:42.378Z,4.07
2022-12-20T02:20:44.250Z,4.77
2022-12-20T02:23:11.712Z,4.03
2022-12-20T02:26:16.712Z,4.70
2022-12-20T02:28:48.982Z,6.13
2022-12-20T02:31:20.730Z,5.40
2022-12-20T02:33:49.424Z,7.23
2022-12-20T02:36:19.282Z,5.43
2022-12-20T02:38:46.262Z,6.10
2022-12-20T02:41:22.198Z,5.93
2022-12-20T02:44:13.979Z,4.83
2022-12-20T02:46:40.992Z,6.47
2022-12-20T02:49:13.682Z,5.60
2022-12-20T02:51:44.464Z,4.60
2022-12-20T02:54:11.748Z,5.77
2022-12-20T02:57:01.957Z,7.33
2022-12-20T02:59:32.053Z,4.90
2022-12-20T03:01:59.160Z,7.00
2022-12-20T03:04:30.360Z,6.27
2022-12-20T03:07:12.947Z,10.60
2022-12-20T03:09:42.664Z,8.37
2022-12-20T03:12:11.956Z,6.60
2022-12-20T03:14:39.804Z,5.13
2022-12-20T03:17:07.576Z,5.77
2022-12-20T03:19:35.357Z,5.77
2022-12-20T03:22:02.508Z,5.23
2022-12-20T03:24:29.277Z,5.70
2022-12-20T03:26:56.177Z,5.67
2022-12-20T03:29:22.925Z,4.70
2022-12-20T03:31:52.435Z,7.00
2022-12-20T03:34:19.212Z,4.60
2022-12-20T03:36:46.095Z,7.37
2022-12-20T03:39:12.878Z,6.20
2022-12-20T03:41:39.832Z,4.13
2022-12-20T03:44:09.794Z,5.30
2022-12-20T03:46:36.700Z,4.80
2022-12-20T03:49:08.040Z,7.37
2022-12-20T03:51:34.822Z,6.50
2022-12-20T03:54:01.953Z,5.27
2022-12-20T03:56:28.709Z,4.67
2022-12-20T03:58:58.257Z,4.47
2022-12-20T04:01:28.377Z,3.20
2022-12-20T04:03:56.313Z,5.27
2022-12-20T04:06:23.946Z,5.67
2022-12-20T04:08:51.103Z,6.57
2022-12-20T04:11:17.994Z,5.67
2022-12-20T04:13:44.726Z,5.63
2022-12-20T04:16:12.905Z,4.27
2022-12-20T04:18:39.896Z,3.17
2022-12-20T04:21:12.026Z,6.10
2022-12-20T04:23:40.922Z,2.90
2022-12-20T04:26:09.081Z,5.17
2022-12-20T04:28:37.468Z,5.90
2022-12-20T04:31:04.279Z,5.60
2022-12-20T04:33:31.306Z,7.13
2022-12-20T04:35:58.126Z,5.40
2022-12-20T04:38:24.899Z,4.10
2022-12-20T04:40:54.016Z,6.83
2022-12-20T04:43:22.214Z,5.83
2022-12-20T04:45:50.611Z,4.23
2022-12-20T04:48:54.722Z,5.30
2022-12-20T04:51:04.249Z,3.43
2022-12-20T04:53:49.139Z,4.43
2022-12-20T04:56:20.751Z,3.73
2022-12-20T04:58:50.065Z,4.97
2022-12-20T05:01:17.376Z,4.40
2022-12-20T05:03:44.272Z,3.57
2022-12-20T05:06:11.392Z,5.07
2022-12-20T05:08:38.267Z,2.53
2022-12-20T05:11:05.857Z,3.37
2022-12-20T05:13:33.172Z,3.27
2022-12-20T05:16:00.160Z,5.30
2022-12-20T05:18:27.794Z,4.33
2022-12-20T05:21:18.212Z,5.10
2022-12-20T05:24:03.732Z,6.97
2022-12-20T05:26:33.290Z,5.53
2022-12-20T05:29:00.071Z,4.70
2022-12-20T05:31:27.017Z,4.50
2022-12-20T05:33:54.280Z,7.20
2022-12-20T05:36:21.111Z,4.63
2022-12-20T05:38:47.897Z,3.70
2022-12-20T05:41:17.410Z,6.53
2022-12-20T05:43:44.162Z,4.03
2022-12-20T05:46:11.188Z,3.63
2022-12-20T05:48:38.159Z,4.67
2022-12-20T05:51:05.307Z,4.30
2022-12-20T05:53:32.062Z,4.97
2022-12-20T05:55:59.939Z,4.17
2022-12-20T05:58:29.660Z,4.00
2022-12-20T06:00:56.993Z,2.80
2022-12-20T06:03:24.018Z,3.53
2022-12-20T06:05:50.894Z,3.80
2022-12-20T06:08:17.732Z,5.90
2022-12-20T06:10:44.592Z,4.23
2022-12-20T06:13:11.838Z,6.07
2022-12-20T06:15:41.979Z,3.23
2022-12-20T06:18:08.819Z,2.63
2022-12-20T06:20:36.695Z,3.77
2022-12-20T06:23:04.139Z,2.77
2022-12-20T06:25:33.915Z,4.67
2022-12-20T06:28:03.648Z,3.00
2022-12-20T06:30:33.873Z,4.37
2022-12-20T06:33:02.280Z,3.63
2022-12-20T06:35:38.790Z,5.60
2022-12-20T06:38:05.612Z,3.13
2022-12-20T06:40:32.392Z,2.60
2022-12-20T06:43:05.822Z,3.57
2022-12-20T06:45:39.283Z,3.67
2022-12-20T06:48:10.715Z,2.90
2022-12-20T06:50:40.834Z,2.97
2022-12-20T06:53:07.752Z,2.43
2022-12-20T06:55:35.237Z,4.87
2022-12-20T06:58:03.288Z,2.33
2022-12-20T07:00:30.230Z,4.20
2022-12-20T07:02:57.238Z,2.90
2022-12-20T07:05:24.058Z,3.70
2022-12-20T07:07:51.080Z,3.57
2022-12-20T07:10:18.040Z,3.03
2022-12-20T07:12:48.085Z,3.60
2022-12-20T07:15:15.790Z,3.10
2022-12-20T07:17:42.549Z,2.87
2022-12-20T07:20:14.022Z,3.40
2022-12-20T07:22:41.430Z,4.17
2022-12-20T07:25:08.375Z,2.87
2022-12-20T07:27:38.062Z,3.73
2022-12-20T07:30:08.232Z,3.67
2022-12-20T07:32:34.990Z,4.90
2022-12-20T07:35:04.518Z,3.60
2022-12-20T07:37:34.099Z,2.30
2022-12-20T07:40:00.864Z,2.17
2022-12-20T07:42:35.774Z,2.73
2022-12-20T07:45:05.271Z,2.90
2022-12-20T07:47:32.123Z,2.47
2022-12-20T07:49:58.836Z,4.17
2022-12-20T07:52:29.848Z,5.23
2022-12-20T07:55:01.404Z,2.33
2022-12-20T07:57:33.535Z,1.63
2022-12-20T08:00:02.249Z,3.13
2022-12-20T08:02:44.696Z,2.97
2022-12-20T08:05:12.254Z,3.67
2022-12-20T08:07:41.551Z,3.23
2022-12-20T08:10:11.393Z,2.57
2022-12-20T08:12:38.489Z,2.53
2022-12-20T08:15:05.867Z,4.77
2022-12-20T08:17:32.626Z,3.73
2022-12-20T08:20:00.480Z,5.07
2022-12-20T08:22:32.980Z,4.97
2022-12-20T08:24:59.758Z,2.47
2022-12-20T08:27:26.739Z,4.87
2022-12-20T08:29:53.529Z,5.27
2022-12-20T08:32:22.233Z,2.77
2022-12-20T08:34:48.987Z,4.27
2022-12-20T08:37:21.731Z,3.30
2022-12-20T08:39:48.555Z,4.47
2022-12-20T08:42:15.284Z,3.03
2022-12-20T08:44:42.098Z,6.90
2022-12-20T08:47:08.867Z,3.97
2022-12-20T08:49:35.644Z,3.63
2022-12-20T08:52:02.509Z,3.20
2022-12-20T08:54:29.219Z,2.20
2022-12-20T08:56:56.054Z,2.27
2022-12-20T08:59:26.684Z,2.70
2022-12-20T09:01:57.146Z,4.93
2022-12-20T09:04:24.004Z,3.73
2022-12-20T09:06:50.868Z,2.17
2022-12-20T09:09:17.633Z,6.20
2022-12-20T09:11:44.570Z,3.90
2022-12-20T09:14:11.528Z,3.47
2022-12-20T09:16:38.413Z,7.07
2022-12-20T09:19:06.439Z,5.30
2022-12-20T09:21:35.045Z,3.90
2022-12-20T09:24:02.008Z,3.27
2022-12-20T09:26:28.938Z,5.10
2022-12-20T09:28:55.895Z,2.70
2022-12-20T09:31:25.045Z,3.40
2022-12-20T09:33:56.489Z,4.67
2022-12-20T09:36:24.572Z,4.43
2022-12-20T09:38:52.142Z,4.03
2022-12-20T09:41:31.460Z,3.50
2022-12-20T09:44:02.467Z,3.47
2022-12-20T09:46:29.771Z,4.00
2022-12-20T09:48:57.720Z,5.03
2022-12-20T09:52:00.226Z,5.33
2022-12-20T09:54:48.649Z,4.07
2022-12-20T09:57:30.157Z,2.30
2022-12-20T10:00:00.566Z,4.47
2022-12-20T10:05:24.443Z,5.13
2022-12-20T10:08:12.371Z,5.30
2022-12-20T10:10:57.286Z,4.37
2022-12-20T10:13:37.831Z,4.17
2022-12-20T10:16:26.801Z,5.67
2022-12-20T10:18:59.426Z,5.30
2022-12-20T10:21:45.092Z,5.63
2022-12-20T10:24:30.705Z,4.47
2022-12-20T10:27:05.447Z,3.60
2022-12-20T10:29:32.528Z,5.17
2022-12-20T10:32:01.575Z,5.00
2022-12-20T10:34:34.974Z,5.27
2022-12-20T10:37:16.023Z,4.93
2022-12-20T10:39:51.311Z,4.97
2022-12-20T10:42:41.105Z,4.33
2022-12-20T10:45:46.998Z,4.53
2022-12-20T10:48:31.607Z,5.33
2022-12-20T10:51:04.579Z,5.33
2022-12-20T10:53:32.766Z,6.30
2022-12-20T10:56:20.678Z,5.43
2022-12-20T10:59:03.864Z,5.07
2022-12-20T11:01:35.475Z,5.17
2022-12-20T11:04:04.329Z,7.20
2022-12-20T11:06:42.623Z,4.97
2022-12-20T11:09:32.353Z,12.27
2022-12-20T11:12:02.177Z,5.90
2022-12-20T11:14:38.351Z,5.23
2022-12-20T11:17:22.076Z,6.23
2022-12-20T11:20:16.449Z,4.53
2022-12-20T11:23:08.045Z,5.37
2022-12-20T11:26:05.696Z,4.33
2022-12-20T11:28:38.327Z,4.30
2022-12-20T11:31:41.369Z,7.50
2022-12-20T11:34:28.926Z,4.17
2022-12-20T11:37:14.527Z,6.03
2022-12-20T11:39:53.632Z,8.77
2022-12-20T11:42:45.830Z,6.00
2022-12-20T11:45:34.634Z,7.70
2022-12-20T11:48:27.202Z,4.93
2022-12-20T11:51:22.903Z,5.67
2022-12-20T11:54:03.051Z,4.13
2022-12-20T11:56:43.953Z,5.43
2022-12-20T11:59:33.741Z,4.10
2022-12-20T12:02:00.553Z,4.87
2022-12-20T12:04:35.564Z,6.23
2022-12-20T12:07:06.905Z,5.10
2022-12-20T12:10:00.703Z,5.40
2022-12-20T12:12:37.690Z,5.17
2022-12-20T12:15:22.555Z,6.07
2022-12-20T12:18:05.563Z,5.77
2022-12-20T12:20:35.501Z,6.27
2022-12-20T12:23:10.933Z,4.63
2022-12-20T12:25:37.717Z,5.97
2022-12-20T12:28:05.418Z,4.57
2022-12-20T12:30:40.478Z,5.20
2022-12-20T12:33:40.419Z,5.80
2022-12-20T12:36:26.159Z,6.17
2022-12-20T12:39:04.997Z,6.67
2022-12-20T12:42:13.007Z,5.23
2022-12-20T12:44:49.706Z,5.27
2022-12-20T12:47:25.055Z,4.40
2022-12-20T12:49:54.675Z,7.83
2022-12-20T12:52:52.802Z,5.67
2022-12-20T12:55:42.785Z,6.13
2022-12-20T12:58:33.574Z,5.47
2022-12-20T13:01:01.634Z,4.23
2022-12-20T13:04:06.632Z,5.87
2022-12-20T13:06:36.356Z,6.07
2022-12-20T13:09:03.359Z,8.10
2022-12-20T13:11:36.733Z,5.03
2022-12-20T13:14:21.451Z,5.33
2022-12-20T13:17:11.655Z,4.97
2022-12-20T13:19:38.408Z,5.27
2022-12-20T13:22:17.204Z,7.97
2022-12-20T13:24:48.656Z,4.93
2022-12-20T13:27:25.800Z,5.20
2022-12-20T13:30:02.504Z,4.80
2022-12-20T13:32:47.868Z,6.83
2022-12-20T13:35:27.929Z,6.33
2022-12-20T13:38:27.882Z,5.53
2022-12-20T13:41:05.117Z,6.37
2022-12-20T13:43:43.228Z,4.20
2022-12-20T13:46:09.966Z,6.70
2022-12-20T13:48:47.467Z,5.17
2022-12-20T13:51:22.969Z,4.90
2022-12-20T13:54:08.576Z,5.90
2022-12-20T13:56:49.435Z,4.70
2022-12-20T13:59:31.119Z,5.87
2022-12-20T14:02:00.293Z,5.60
2022-12-20T14:04:40.532Z,7.63
2022-12-20T14:07:13.120Z,5.77
2022-12-20T14:09:40.074Z,6.20
2022-12-20T14:12:25.305Z,5.47
2022-12-20T14:14:54.507Z,5.87
2022-12-20T14:17:30.130Z,5.27
2022-12-20T14:20:17.520Z,5.43
2022-12-20T14:23:09.233Z,4.43
2022-12-20T14:25:52.830Z,3.70
2022-12-20T14:28:24.968Z,4.20
2022-12-20T14:30:54.145Z,5.63
2022-12-20T14:33:29.174Z,8.43
2022-12-20T14:35:56.255Z,4.93
2022-12-20T14:38:29.371Z,7.50
2022-12-20T14:40:56.653Z,5.97
2022-12-20T14:43:32.695Z,8.17
2022-12-20T14:46:18.262Z,4.97
2022-12-20T14:48:45.929Z,5.17
2022-12-20T14:51:21.556Z,9.43
2022-12-20T14:53:51.141Z,5.10
2022-12-20T14:56:21.727Z,5.67
2022-12-20T14:59:16.734Z,5.73
2022-12-20T15:01:44.705Z,5.87
2022-12-20T15:04:33.134Z,5.50
2022-12-20T15:07:01.416Z,5.70
2022-12-20T15:09:28.957Z,6.07
2022-12-20T15:11:59.085Z,5.63
2022-12-20T15:14:34.914Z,6.07
2022-12-20T15:17:01.868Z,5.37
2022-12-20T15:19:28.731Z,5.10
2022-12-20T15:21:58.016Z,7.03
2022-12-20T15:24:28.727Z,5.60
2022-12-20T15:26:56.276Z,5.77
2022-12-20T15:29:28.731Z,6.20
2022-12-20T15:32:07.716Z,5.87
2022-12-20T15:34:36.621Z,5.33
2022-12-20T15:37:04.996Z,6.33
2022-12-20T15:39:32.827Z,5.67
2022-12-20T15:42:05.018Z,6.30
2022-12-20T15:44:32.363Z,6.53
2022-12-20T15:46:59.536Z,6.27
2022-12-20T15:49:31.214Z,6.43
2022-12-20T15:51:58.670Z,5.57
2022-12-20T15:54:33.252Z,6.97
2022-12-20T15:57:03.620Z,7.20
2022-12-20T16:02:24.642Z,6.77
2022-12-20T16:04:52.533Z,7.77
2022-12-20T16:07:19.773Z,9.70
2022-12-20T16:09:49.674Z,7.77
2022-12-20T16:12:28.157Z,8.87
2022-12-20T16:14:55.819Z,8.93
2022-12-20T16:17:22.768Z,8.10
2022-12-20T16:19:50.745Z,7.97
2022-12-20T16:22:20.176Z,8.63
2022-12-20T16:24:48.256Z,8.87
2022-12-20T16:27:15.212Z,8.60
2022-12-20T16:29:42.107Z,8.57
2022-12-20T16:32:17.989Z,9.23
2022-12-20T16:34:45.669Z,8.00
2022-12-20T16:37:13.007Z,8.70
2022-12-20T16:39:40.711Z,8.77
2022-12-20T16:42:22.475Z,9.23
2022-12-20T16:44:54.110Z,8.10
2022-12-20T16:47:21.649Z,10.53
2022-12-20T16:49:53.654Z,7.93
2022-12-20T16:52:24.635Z,9.77
2022-12-20T16:54:51.556Z,9.10
2022-12-20T16:57:20.527Z,10.63
2022-12-20T16:59:47.291Z,8.30
2022-12-20T17:02:28.686Z,8.90
2022-12-20T17:04:55.831Z,10.37
2022-12-20T17:07:22.636Z,10.90
2022-12-20T17:09:49.675Z,10.07
2022-12-20T17:12:21.686Z,10.93
2022-12-20T17:14:49.077Z,12.73
2022-12-20T17:17:16.492Z,11.57
2022-12-20T17:19:43.211Z,12.17
2022-12-20T17:24:57.109Z,10.80
2022-12-20T17:27:23.872Z,12.17
2022-12-20T17:29:50.820Z,14.03
2022-12-20T17:32:25.913Z,11.77
2022-12-20T17:34:53.278Z,10.43
2022-12-20T17:37:21.027Z,10.97
2022-12-20T17:39:48.057Z,10.93
2022-12-20T17:42:17.624Z,14.30
2022-12-20T17:44:46.259Z,12.33
2022-12-20T17:47:17.364Z,12.10
2022-12-20T17:49:44.174Z,12.90
2022-12-20T17:52:14.174Z,13.57
2022-12-20T17:54:40.993Z,11.07
2022-12-20T17:57:15.602Z,12.43
2022-12-20T17:59:43.498Z,11.07
2022-12-20T18:02:22.693Z,13.10
2022-12-20T18:04:50.139Z,11.63
2022-12-20T18:07:17.058Z,14.30
2022-12-20T18:09:46.823Z,15.37
2022-12-20T18:12:13.618Z,15.70
2022-12-20T18:14:40.357Z,12.27
2022-12-20T18:17:07.255Z,12.90
2022-12-20T18:19:35.879Z,14.47
2022-12-20T18:22:04.518Z,14.63
2022-12-20T18:24:31.373Z,13.03
2022-12-20T18:26:58.054Z,14.10
2022-12-20T18:29:24.758Z,12.97
2022-12-20T18:31:52.775Z,13.33
2022-12-20T18:34:19.672Z,13.97
2022-12-20T18:36:46.486Z,14.40
2022-12-20T18:39:13.599Z,14.00
2022-12-20T18:41:42.982Z,17.27
2022-12-20T18:44:11.562Z,14.40
2022-12-20T18:46:38.411Z,14.33
2022-12-20T18:49:05.300Z,16.33
2022-12-20T18:51:37.390Z,16.00
2022-12-20T18:54:07.135Z,16.47
2022-12-20T18:56:36.502Z,15.40
2022-12-20T18:59:10.971Z,16.20
2022-12-20T19:01:40.096Z,17.60
2022-12-20T19:04:11.052Z,17.20
2022-12-20T19:06:38.752Z,18.67
2022-12-20T19:09:09.525Z,20.23
2022-12-20T19:11:36.687Z,17.23
2022-12-20T19:14:03.720Z,20.93
2022-12-20T19:16:32.854Z,18.80
2022-12-20T19:19:01.446Z,22.50
2022-12-20T19:21:33.603Z,19.20
2022-12-20T19:24:05.123Z,19.23
2022-12-20T19:26:36.579Z,18.27
2022-12-20T19:29:04.591Z,19.97
2022-12-20T19:31:37.496Z,20.70
2022-12-20T19:34:10.958Z,19.03
2022-12-20T19:36:41.273Z,20.33
2022-12-20T19:39:16.810Z,22.00
2022-12-20T19:41:54.902Z,21.97
2022-12-20T19:44:26.982Z,20.97
2022-12-20T19:46:53.918Z,22.73
2022-12-20T19:49:20.865Z,21.87
2022-12-20T19:51:49.052Z,21.10
2022-12-20T19:54:15.851Z,21.03
2022-12-20T19:56:42.588Z,22.80
2022-12-20T19:59:11.745Z,21.47
2022-12-20T20:01:38.703Z,22.90
2022-12-20T20:04:06.329Z,26.17
2022-12-20T20:06:33.146Z,23.00
2022-12-20T20:08:59.999Z,21.67
2022-12-20T20:11:28.121Z,21.03
2022-12-20T20:13:55.736Z,23.70
2022-12-20T20:16:25.853Z,23.07
2022-12-20T20:18:55.517Z,22.83
2022-12-20T20:21:25.204Z,22.20
2022-12-20T20:23:53.822Z,23.33
2022-12-20T20:26:26.368Z,23.47
2022-12-20T20:28:53.711Z,23.07
2022-12-20T20:31:21.487Z,25.57
2022-12-20T20:33:50.978Z,24.47
2022-12-20T20:36:20.298Z,23.33
2022-12-20T20:38:47.811Z,24.80
2022-12-20T20:41:15.447Z,24.17
2022-12-20T20:43:42.856Z,23.30
2022-12-20T20:46:12.282Z,22.30
2022-12-20T20:48:40.227Z,28.00
2022-12-20T20:51:07.311Z,24.87
2022-12-20T20:53:36.674Z,26.60
2022-12-20T20:56:05.011Z,27.00
2022-12-20T20:58:32.799Z,27.20
2022-12-20T21:01:02.010Z,26.47
2022-12-20T21:03:30.615Z,28.97
2022-12-20T21:08:44.776Z,27.67
2022-12-20T21:11:11.968Z,28.57
2022-12-20T21:13:39.032Z,27.40
2022-12-20T21:16:20.293Z,29.53
2022-12-20T21:18:51.856Z,24.70
2022-12-20T21:21:21.954Z,27.20
2022-12-20T21:23:49.097Z,28.07
2022-12-20T21:26:17.667Z,25.37
2022-12-20T21:28:45.490Z,26.77
2022-12-20T21:31:14.412Z,26.07
2022-12-20T21:33:41.441Z,24.40
2022-12-20T21:36:13.953Z,28.33
2022-12-20T21:38:41.047Z,27.33
2022-12-20T21:41:10.890Z,24.90
2022-12-20T21:43:38.050Z,25.80
2022-12-20T21:46:05.217Z,25.40
2022-12-20T21:48:32.024Z,27.13
2022-12-20T21:51:08.915Z,26.77
2022-12-20T21:53:37.029Z,25.37
2022-12-20T21:56:03.832Z,26.13
2022-12-20T21:58:31.399Z,26.83
2022-12-20T22:01:02.969Z,28.73
2022-12-20T22:03:32.709Z,28.53
2022-12-20T22:05:59.825Z,25.50
2022-12-20T22:08:27.996Z,31.87
2022-12-20T22:11:02.690Z,33.97
2022-12-20T22:13:33.227Z,35.23
2022-12-20T22:16:10.468Z,36.63
2022-12-20T22:18:38.258Z,35.43
2022-12-20T22:21:32.716Z,35.63
2022-12-20T22:24:00.838Z,34.37
2022-12-20T22:26:29.601Z,35.97
2022-12-20T22:28:59.729Z,40.60
2022-12-20T22:31:27.293Z,44.10
2022-12-20T22:33:55.532Z,41.23
2022-12-20T22:36:25.664Z,40.03
2022-12-20T22:38:54.254Z,41.00
2022-12-20T22:41:30.088Z,41.20
2022-12-20T22:43:59.249Z,42.23
2022-12-20T22:46:29.175Z,39.70
2022-12-20T22:48:56.632Z,42.83
2022-12-20T22:51:25.956Z,44.23
2022-12-20T22:53:53.199Z,46.17
2022-12-20T22:56:21.677Z,45.70
2022-12-20T22:58:49.516Z,44.67
2022-12-20T23:01:18.397Z,45.83
2022-12-20T23:03:46.025Z,42.93
2022-12-20T23:06:15.740Z,43.03
2022-12-20T23:08:43.188Z,44.87
2022-12-20T23:11:41.015Z,44.80
2022-12-20T23:14:34.097Z,45.37
2022-12-20T23:17:01.508Z,46.87
2022-12-20T23:19:28.877Z,47.23
2022-12-20T23:22:14.129Z,47.00
2022-12-20T23:24:40.874Z,46.20
2022-12-20T23:27:07.656Z,48.07
2022-12-20T23:29:34.824Z,47.03
2022-12-20T23:32:04.471Z,46.93
2022-12-20T23:34:31.298Z,46.53
2022-12-20T23:36:58.197Z,50.17
2022-12-20T23:39:25.093Z,44.73
2022-12-20T23:41:51.878Z,49.87
2022-12-20T23:44:18.752Z,47.03
2022-12-20T23:46:45.572Z,46.07
2022-12-20T23:49:12.268Z,48.20
2022-12-20T23:51:39.456Z,49.07
2022-12-20T23:54:06.196Z,51.43
2022-12-20T23:56:33.350Z,46.90
2022-12-20T23:59:00.125Z,51.97
